Tiempo atmosférico en la estación meteorológica de Capella, Huesca (600 m.)



Fecha
DESCASC
Temp. máxima en grados centígrados (hora)
DESCASC
Temp. mínima en grados centígrados (hora)
DESCASC
Temp. media en grados centígrados
DESCASC
Racha de viento máxima en m/sg (hora)
DESCASC
Velocidad máxima media en intervalos de 10 minutos(hora)
DESCASC
Precipitaciones diarias en mm
DESCASC
Precipitaciones de 00:00 a 06:00 en mm
DESCASC
Precipitaciones de 06:00 a 12:00 en mm
DESCASC
Precipitaciones de 12:00 a 18:00 en mm
DESCASC
Precipitaciones de 18:00 a 24:00 en mm
DESCASC
18-01-2018 10.4 (16:10) -3.2 (08:50) 3.6 4.44 (14:20) 2.78 (14:30) 0 0 0 0 0
17-01-2018 14.2 (14:30) 1 (23:30) 7.6 7.78 (15:10) 4.72 (16:00) 0 0 0 0 0
16-01-2018 13.8 (16:40) -1.6 (08:30) 6.1 4.72 (14:00) 3.33 (14:20) 0 0 0 0 0
15-01-2018 7 (14:20) -3.7 (07:30) 1.6 6.39 (15:30) 4.17 (15:40) 0 0 0 0 0
14-01-2018 7.7 (15:20) -1.1 (-00:0) 3.3 4.17 (15:00) 2.78 (15:10) 0.8 0.8 0 0 0
13-01-2018 6.9 (14:10) -3.8 (-00:0) 1.6 6.11 (13:20) 3.89 (13:30) 0 0 0 0 0
12-01-2018 -- (--) -- (--) -- -- (--) -- (--) -- -- 0 0 0
11-01-2018 -- (--) -- (--) -- -- (--) -- (--) -- 0 0 -- --
10-01-2018 8.6 (15:50) -2.2 (-00:0) 3.2 6.39 (14:50) 4.17 (14:50) 2 0 0 0 2
09-01-2018 6.4 (16:00) -1.9 (-00:0) 2.3 3.61 (16:00) 2.5 (14:20) 0 0 0 0 0
08-01-2018 6.4 (14:20) -2.6 (-00:0) 1.9 5.56 (17:10) 3.89 (17:10) 0 0 0 0 0
07-01-2018 9.6 (00:00) 2.1 (00:00) 5.9 8.89 (10:10) 3.89 (10:10) 19.4 17.6 1.8 0 0
06-01-2018 11.3 (23:00) 6.2 (00:00) 8.8 12.22 (21:40) 6.67 (23:20) 0.8 0 0 0 0.8
05-01-2018 12.8 (15:40) 0.9 (00:00) 6.9 5.56 (14:50) 3.89 (14:50) 0 0 0 0 0
04-01-2018 16.8 (15:30) 4.4 (09:00) 10.6 9.72 (15:50) 6.11 (15:40) 0 0 0 0 0
03-01-2018 17.7 (15:10) 2.7 (00:00) 10.2 9.44 (19:00) 5.83 (17:10) 0 0 0 0 0
02-01-2018 13.4 (16:00) -0.2 (00:00) 6.6 5.28 (16:30) 3.61 (16:30) 0 0 0 0 0
01-01-2018 8.6 (14:10) -0.7 (-00:0) 4 9.72 (14:30) 5.28 (14:30) 1.8 0 0 0.6 1.2
31-12-2017 7.5 (16:00) 0 (00:00) 3.8 8.06 (22:40) 5.28 (22:40) 0 0 0 0 0
30-12-2017 15.2 (15:50) 0.2 (00:00) 7.7 4.17 (14:00) 2.5 (14:00) 0 0 0 0 0
29-12-2017 9.3 (16:20) -2.3 (-00:0) 3.5 3.33 (21:30) 2.22 (21:00) 0.4 0 0.4 0 0
28-12-2017 4.1 (14:20) -4 (-00:0) 0 3.06 (05:10) 2.22 (23:10) 0.4 0 0 0.4 0
27-12-2017 7.2 (14:20) -2.1 (-00:0) 2.5 12.22 (14:30) 7.5 (14:40) 2.6 2.6 0 0 0
26-12-2017 4.5 (13:40) 0.7 (00:00) 2.6 5.83 (15:10) 3.89 (14:50) 0.4 0.2 0 0 0.2
25-12-2017 10.4 (15:10) -3.4 (-00:0) 3.5 4.44 (16:30) 3.33 (16:10) 0 0 0 0 0
24-12-2017 10.8 (16:00) -4.3 (-00:0) 3.3 3.33 (15:10) 2.5 (15:20) 0.2 0 0.2 0 0

Gráficas

Temp. máximas Temp. mínimas Temp. medias Precipitaciones Rachas de viento máximas Velocidades máximas media en intervalos de 10 minutos

Datos horarios

Fecha y hora oficial Temperatura (ºC) Velocidad del viento (km/h) Dirección del viento Racha (km/h) Dirección de racha Precipitación (mm) Presión (hPa) Tendencia (hPa) Humedad (%)
2018-01-22 23:00:00 5.1 8 Nordeste 13 Nordeste 0 -- -- 92
2018-01-22 22:00:00 6 5 Nordeste 10 Este 0 -- -- 87
2018-01-22 21:00:00 6.5 4 Nordeste 10 Nordeste 0 -- -- 87
2018-01-22 20:00:00 7.7 6 Nordeste 13 Nordeste 0 -- -- 83
2018-01-22 19:00:00 8.9 2 Este 10 Sur 0 -- -- 73
2018-01-22 18:00:00 11.1 7 Sur 8 Sur 0 -- -- 69
2018-01-22 17:00:00 16 5 Oeste 12 Sudoeste 0 -- -- 57
2018-01-22 16:00:00 16 6 Sudoeste 17 Sudoeste 0 -- -- 57
2018-01-22 15:00:00 15.1 10 Sur 19 Oeste 0 -- -- 55
2018-01-22 14:00:00 14.2 14 Sudoeste 20 Oeste 0 -- -- 60
2018-01-22 13:00:00 11.6 13 Sudoeste 17 Sudoeste 0 -- -- 65
2018-01-22 12:00:00 9.8 4 Oeste 8 Oeste 0 -- -- 72
2018-01-22 11:00:00 7 0 Calma 4 Nordeste 0 -- -- 79
2018-01-22 10:00:00 3.5 3 Este 8 Sur 0 -- -- 90
2018-01-22 09:00:00 1.5 6 Sudeste 9 Sur 0 -- -- 97
2018-01-22 08:00:00 1.4 6 Este 9 Este 0 -- -- 95
2018-01-22 07:00:00 2 3 Este 8 Nordeste 0 -- -- 93
2018-01-22 06:00:00 1.2 0 Calma 9 Nordeste 0 -- -- 90
2018-01-22 05:00:00 2.3 5 Este 8 Este 0 -- -- 93
2018-01-22 04:00:00 3.5 4 Este 11 Nordeste 0 -- -- 89
2018-01-22 03:00:00 3.2 4 Este 8 Nordeste 0 -- -- 93
2018-01-22 02:00:00 4.9 5 Este 12 Nordeste 0 -- -- 87
2018-01-22 01:00:00 5.6 6 Nordeste 12 Nordeste 0 -- -- 83
2018-01-22 00:00:00 5.2 0 Calma 12 Este 0 -- -- 83
2018-01-21 23:00:00 6.6 3 Este 13 Nordeste 0 -- -- 83
2018-01-21 22:00:00 8.1 6 Este 11 Este 0 -- -- 77
2018-01-21 21:00:00 9.3 6 Este 9 Este 0 -- -- 74
2018-01-21 20:00:00 11.5 2 Oeste 14 Sur 0 -- -- 66
2018-01-21 19:00:00 15.2 12 Sudoeste 27 Sur 0 -- -- 55
2018-01-21 18:00:00 15.5 11 Sudoeste 28 Oeste 0 -- -- 56
2018-01-21 17:00:00 17.9 18 Sudoeste 31 Sudoeste 0 -- -- 49
2018-01-21 16:00:00 19.2 14 Sudoeste 23 Sudoeste 0 -- -- 47
2018-01-21 15:00:00 18.3 11 Sudoeste 19 Sudoeste 0 -- -- 52
2018-01-21 14:00:00 17 5 Oeste 18 Sudoeste 0 -- -- 56
2018-01-21 13:00:00 15.1 4 Oeste 12 Oeste 0 -- -- 63
2018-01-21 12:00:00 12.8 3 Norte 6 Nordeste 0 -- -- 71
2018-01-21 11:00:00 10.2 3 Nordeste 6 Norte 0 -- -- 81
2018-01-21 10:00:00 6.4 2 Sudeste 14 Nordeste 0 -- -- 90
2018-01-21 09:00:00 3.7 8 Este 13 Nordeste 0 -- -- 96
2018-01-21 08:00:00 3.9 8 Nordeste 15 Nordeste 0 -- -- 93
2018-01-21 07:00:00 4 9 Nordeste 16 Nordeste 0 -- -- 92
2018-01-21 06:00:00 3.9 10 Nordeste 16 Nordeste 0 -- -- 93
2018-01-21 05:00:00 3.8 5 Este 10 Este 0 -- -- 92
2018-01-21 04:00:00 3.9 5 Nordeste 12 Nordeste 0 -- -- 92
2018-01-21 03:00:00 4.1 6 Nordeste 14 Nordeste 0 -- -- 93
2018-01-21 02:00:00 4 2 Sudeste 9 Nordeste 0 -- -- 91
2018-01-21 01:00:00 4.3 3 Este 10 Este 0 -- -- 93
2018-01-21 00:00:00 5.2 5 Este 10 Este 0 -- -- 89
2018-01-20 23:00:00 5.3 5 Este 10 Nordeste 0 -- -- 88
2018-01-20 22:00:00 6.6 6 Este 12 Sur 0 -- -- 84
2018-01-20 21:00:00 9.6 5 Sudeste 18 Oeste 0 -- -- 76
2018-01-20 20:00:00 10.3 8 Sudoeste 21 Sudoeste 0 -- -- 73
2018-01-20 19:00:00 11 10 Oeste 32 Sudoeste 0 -- -- 69
2018-01-20 18:00:00 11.8 19 Sudoeste 29 Sudoeste 0 -- -- 65
2018-01-20 17:00:00 13.3 14 Sudoeste 32 Sur 0 -- -- 57
2018-01-20 16:00:00 14 18 Sur 30 Sur 0 -- -- 52
2018-01-20 15:00:00 13.8 17 Sudoeste 24 Sur 0 -- -- 50
2018-01-20 14:00:00 12.1 11 Sudoeste 19 Oeste 0 -- -- 54
2018-01-20 13:00:00 8.6 5 Oeste 16 Oeste 0 -- -- 62
2018-01-20 12:00:00 6 2 Oeste 6 Noroeste 0 -- -- 74
2018-01-20 11:00:00 3.5 0 Calma 8 Nordeste 0 -- -- 76
2018-01-20 10:00:00 0.6 5 Sudeste 7 Este 0 -- -- 90
2018-01-20 09:00:00 -2.1 3 Este 6 Este 0 -- -- 95
2018-01-20 08:00:00 -2.4 3 Nordeste 10 Sudeste 0 -- -- 92
2018-01-20 07:00:00 -1.5 4 Nordeste 8 Este 0 -- -- 92
2018-01-20 06:00:00 -2.1 0 Calma 8 Este 0 -- -- 92
2018-01-20 05:00:00 -1.9 2 Sur 8 Este 0 -- -- 89
2018-01-20 04:00:00 -1 3 Este 8 Nordeste 0 -- -- 91
2018-01-20 03:00:00 0 5 Nordeste 12 Nordeste 0 -- -- 89
2018-01-20 02:00:00 -0.4 0 Calma 9 Nordeste 0 -- -- 91
2018-01-20 01:00:00 0.8 4 Este 11 Este 0 -- -- 88
2018-01-20 00:00:00 1.2 4 Nordeste 8 Nordeste 0 -- -- 89
2018-01-19 23:00:00 2 2 Este 10 Este 0 -- -- 87
2018-01-19 22:00:00 2.4 4 Nordeste 8 Nordeste 0 -- -- 88
2018-01-19 21:00:00 3.2 5 Este 12 Nordeste 0 -- -- 84
2018-01-19 20:00:00 4.6 3 Este 9 Nordeste 0 -- -- 78
2018-01-19 19:00:00 6.3 7 Sudeste 9 Este 0 -- -- 76
2018-01-19 18:00:00 9.3 5 Sudeste 9 Oeste 0 -- -- 67
2018-01-19 17:00:00 12.5 5 Oeste 17 Sudoeste 0 -- -- 57
2018-01-19 16:00:00 12.9 11 Oeste 15 Oeste 0 -- -- 56
2018-01-19 15:00:00 12.5 8 Sudoeste 14 Sudoeste 0 -- -- 55
2018-01-19 14:00:00 10.1 9 Sudoeste 13 Sudoeste 0 -- -- 62
2018-01-19 13:00:00 8 8 Sudoeste 12 Sudoeste 0 -- -- 70
2018-01-19 12:00:00 5 2 Noroeste 4 Noroeste 0 -- -- 76
2018-01-19 11:00:00 1.4 0 Calma 9 Este 0 -- -- 90
2018-01-19 10:00:00 -1 4 Este 6 Este 0 -- -- 96
2018-01-19 09:00:00 -2.2 0 Calma 5 Este 0 -- -- 94
2018-01-19 08:00:00 -1.6 3 Este 9 Este 0 -- -- 96
2018-01-19 07:00:00 -1.5 4 Este 7 Nordeste 0 -- -- 97
2018-01-19 06:00:00 -2.3 2 Nordeste 8 Nordeste 0 -- -- 96
2018-01-19 05:00:00 -1.8 0 Calma 6 Sudeste 0 -- -- 96
2018-01-19 04:00:00 -1.5 0 Calma 7 Sudeste 0 -- -- 94
2018-01-19 03:00:00 -0.6 4 Oeste 9 Sudeste 0 -- -- 91
2018-01-19 02:00:00 -0.5 0 Calma 8 Este 0 -- -- 90
2018-01-19 01:00:00 0.1 3 Nordeste 7 Este 0 -- -- 91
2018-01-19 00:00:00 0.8 2 Este 8 Nordeste 0 -- -- 89
2018-01-18 23:00:00 0.9 0 Calma 8 Nordeste 0 -- -- 85
2018-01-18 22:00:00 1.6 3 Nordeste 8 Este 0 -- -- 85
2018-01-18 21:00:00 2.1 3 Nordeste 12 Nordeste 0 -- -- 83
2018-01-18 20:00:00 3 3 Nordeste 11 Nordeste 0 -- -- 79
2018-01-18 19:00:00 3.4 0 Calma 6 Sur 0 -- -- 77
2018-01-18 18:00:00 6.2 4 Sur 9 Sudoeste 0 -- -- 68
2018-01-18 17:00:00 9.6 7 Sudoeste 10 Sudoeste 0 -- -- 57
2018-01-18 16:00:00 10.3 5 Oeste 13 Oeste 0 -- -- 49
2018-01-18 15:00:00 9.5 9 Sudoeste 16 Oeste 0 -- -- 55
2018-01-18 14:00:00 8.7 7 Sudoeste 14 Sudoeste 0 -- -- 56
2018-01-18 13:00:00 6.7 6 Sudoeste 12 Sudoeste 0 -- -- 65
2018-01-18 12:00:00 4.8 5 Sudoeste 9 Sur 0 -- -- 64
2018-01-18 11:00:00 2.5 0 Calma 4 Sudoeste 0 -- -- 79
2018-01-18 10:00:00 0.3 0 Calma 6 Sudeste 0 -- -- 84
2018-01-18 09:00:00 -2.9 2 Este 5 Este 0 -- -- 94
2018-01-18 08:00:00 -2.7 2 Nordeste 4 Nordeste 0 -- -- 89
2018-01-18 07:00:00 -1.8 3 Este 6 Sudeste 0 -- -- 90
2018-01-18 06:00:00 -2 2 Sudeste 8 Este 0 -- -- 89
2018-01-18 05:00:00 -0.8 3 Este 9 Este 0 -- -- 88
2018-01-18 04:00:00 -1.4 4 Este 9 Nordeste 0 -- -- 90
2018-01-18 03:00:00 -1.2 3 Nordeste 9 Sudeste 0 -- -- 85
2018-01-18 02:00:00 -1 0 Calma 5 Norte 0 -- -- 84
2018-01-18 01:00:00 0.7 3 Este 11 Nordeste 0 -- -- 81
2018-01-18 00:00:00 1.3 3 Este 9 Nordeste 0 -- -- 78
2018-01-17 23:00:00 1.5 0 Calma 8 Nordeste 0 -- -- 78
2018-01-17 22:00:00 2.8 6 Nordeste 12 Nordeste 0 -- -- 73
2018-01-17 21:00:00 3.7 4 Este 14 Nordeste 0 -- -- 72
2018-01-17 20:00:00 4.9 3 Nordeste 15 Sur 0 -- -- 66
2018-01-17 19:00:00 8.2 10 Sur 17 Sur 0 -- -- 54
2018-01-17 18:00:00 9.7 10 Sur 19 Sudoeste 0 -- -- 50
2018-01-17 17:00:00 12.8 12 Sur 25 Sur 0 -- -- 40
2018-01-17 16:00:00 13.7 17 Sur 28 Sur 0 -- -- 39
2018-01-17 15:00:00 13.8 16 Sur 27 Sur 0 -- -- 44
2018-01-17 14:00:00 13.9 9 Sur 19 Sur 0 -- -- 44
2018-01-17 13:00:00 12.9 6 Sur 15 Sudoeste 0 -- -- 46
2018-01-17 12:00:00 11.2 3 Norte 8 Norte 0 -- -- 56
2018-01-17 11:00:00 7.7 2 Nordeste 10 Nordeste 0 -- -- 78
2018-01-17 10:00:00 4.2 6 Nordeste 15 Sudoeste 0 -- -- 88
2018-01-17 09:00:00 2.5 5 Este 14 Nordeste 0 -- -- 89
2018-01-17 08:00:00 2.1 5 Nordeste 12 Nordeste 0 -- -- 95
2018-01-17 07:00:00 2.5 8 Nordeste 15 Nordeste 0 -- -- 94
2018-01-17 06:00:00 3.7 7 Este 18 Nordeste 0 -- -- 92
2018-01-17 05:00:00 4.3 8 Nordeste 12 Nordeste 0 -- -- 89
2018-01-17 04:00:00 5.5 5 Nordeste 13 Oeste 0 -- -- 87
2018-01-17 03:00:00 6.2 0 Calma 14 Sudoeste 0 -- -- 88
2018-01-17 02:00:00 5.2 2 Oeste 11 Este 0 -- -- 94
2018-01-17 01:00:00 4 5 Nordeste 13 Nordeste 0 -- -- 96
2018-01-17 00:00:00 3.8 5 Nordeste 13 Nordeste 0 -- -- 97
2018-01-16 23:00:00 3.8 6 Este 12 Nordeste 0 -- -- 97
2018-01-16 22:00:00 4.4 5 Nordeste 15 Nordeste 0 -- -- 94
2018-01-16 21:00:00 5.1 5 Este 8 Este 0 -- -- 96
2018-01-16 20:00:00 5.7 3 Este 8 Este 0 -- -- 90
2018-01-16 19:00:00 6.6 2 Este 6 Oeste 0 -- -- 87
2018-01-16 18:00:00 10.4 5 Oeste 12 Sudoeste 0 -- -- 78
2018-01-16 17:00:00 13.4 3 Este 7 Oeste 0 -- -- 69
2018-01-16 16:00:00 13 4 Oeste 10 Oeste 0 -- -- 69
2018-01-16 15:00:00 11.9 7 Oeste 15 Sudoeste 0 -- -- 71
2018-01-16 14:00:00 10.6 10 Sudoeste 17 Sur 0 -- -- 74
2018-01-16 13:00:00 7.6 4 Oeste 9 Sudoeste 0 -- -- 79
2018-01-16 12:00:00 5.4 7 Sudoeste 14 Sudoeste 0 -- -- 82
2018-01-16 11:00:00 3.5 5 Oeste 10 Nordeste 0 -- -- 89
2018-01-16 10:00:00 1.1 4 Este 8 Este 0 -- -- 96
2018-01-16 09:00:00 -1.2 5 Sudeste 6 Sudeste 0 -- -- 99
2018-01-16 08:00:00 -1 0 Calma 7 Nordeste 0 -- -- 95
2018-01-16 07:00:00 -1 3 Este 6 Este 0 -- -- 98
2018-01-16 06:00:00 -0.3 4 Nordeste 8 Este 0 -- -- 96
2018-01-16 05:00:00 -0.3 4 Este 6 Este 0 -- -- 98
2018-01-16 04:00:00 -0.3 0 Calma 9 Nordeste 0 -- -- 96
2018-01-16 03:00:00 0.6 6 Nordeste 12 Nordeste 0 -- -- 96
2018-01-16 02:00:00 1 4 Nordeste 8 Nordeste 0 -- -- 97
2018-01-16 01:00:00 1.1 4 Nordeste 9 Nordeste 0 -- -- 97
2018-01-16 00:00:00 1.5 2 Nordeste 8 Este 0 -- -- 97
2018-01-15 23:00:00 1.9 5 Este 9 Este 0 -- -- 98
2018-01-15 22:00:00 2.1 3 Nordeste 8 Sudeste 0 -- -- 96
2018-01-15 21:00:00 2.6 0 Calma 3 Sudeste 0 -- -- 95
2018-01-15 20:00:00 2.8 0 Calma 8 Sudoeste 0 -- -- 95
2018-01-15 19:00:00 3.1 2 Sudoeste 8 Sudoeste 0 -- -- 93
2018-01-15 18:00:00 3.5 5 Sudoeste 10 Sudoeste 0 -- -- 92
2018-01-15 17:00:00 4.5 8 Oeste 17 Oeste 0 -- -- 88
2018-01-15 16:00:00 4.8 13 Oeste 23 Oeste 0 -- -- 86
2018-01-15 15:00:00 6.6 10 Oeste 21 Oeste 0 -- -- 76
2018-01-15 14:00:00 6.6 13 Oeste 20 Oeste 0 -- -- 74
2018-01-15 13:00:00 4.2 8 Sudoeste 12 Sudoeste 0 -- -- 82
2018-01-15 12:00:00 3 7 Sudoeste 11 Sudoeste 0 -- -- 90
2018-01-15 11:00:00 0.9 2 Sur 4 Sur 0 -- -- 93
2018-01-15 10:00:00 -1 2 Nordeste 4 Este 0 -- -- 99
2018-01-15 09:00:00 -3.6 0 Calma 5 Este 0 -- -- 98
2018-01-15 08:00:00 -3.7 2 Nordeste 5 Norte 0 -- -- 98
2018-01-15 07:00:00 -3.4 0 Calma 5 Nordeste 0 -- -- 97
2018-01-15 06:00:00 -3.5 0 Calma 5 Nordeste 0 -- -- 97
2018-01-15 05:00:00 -2.4 0 Calma 7 Este 0 -- -- 98
2018-01-15 04:00:00 -2.1 0 Calma 9 Nordeste 0 -- -- 98
2018-01-15 03:00:00 -2 2 Este 7 Este 0 -- -- 97
2018-01-15 02:00:00 -1.3 3 Nordeste 6 Nordeste 0 -- -- 98
2018-01-15 01:00:00 -1.1 3 Sudeste 8 Este 0 -- -- 98
2018-01-15 00:00:00 -1.1 5 Este 9 Este 0 -- -- 98
2018-01-14 23:00:00 -0.6 0 Calma 9 Nordeste 0 -- -- 97
2018-01-14 22:00:00 0.1 0 Calma 8 Nordeste 0 -- -- 96
2018-01-14 21:00:00 0.5 3 Sur 8 Este 0 -- -- 94
2018-01-14 20:00:00 1.3 2 Norte 6 Sur 0 -- -- 90
2018-01-14 19:00:00 2.7 3 Sur 6 Sudoeste 0 -- -- 89
2018-01-14 18:00:00 4.9 5 Sudoeste 12 Sudoeste 0 -- -- 87
2018-01-14 17:00:00 6.1 6 Sudoeste 11 Sur 0 -- -- 79
2018-01-14 16:00:00 6.5 8 Sur 15 Sur 0 -- -- 76
2018-01-14 15:00:00 7.3 9 Sudoeste 15 Sudoeste 0 -- -- 73
2018-01-14 14:00:00 6 8 Sudoeste 12 Sudoeste 0 -- -- 80
2018-01-14 13:00:00 5.7 5 Sudoeste 9 Oeste 0 -- -- 83
2018-01-14 12:00:00 4.3 0 Calma 4 Sudoeste 0 -- -- 99
2018-01-14 11:00:00 2.9 2 Sudeste 5 Nordeste 0 -- -- 100
2018-01-14 10:00:00 1.7 2 Norte 5 Nordeste 0 -- -- 100
2018-01-14 09:00:00 1.3 0 Calma 5 Nordeste 0 -- -- 99
2018-01-14 08:00:00 1.7 3 Este 5 Este 0 -- -- 99
2018-01-14 07:00:00 1.9 0 Calma 2 Sur 0 -- -- 97
2018-01-14 06:00:00 2.3 0 Calma 2 Norte 0.4 -- -- 97
2018-01-14 05:00:00 2.5 0 Calma 5 Sur 0.2 -- -- 97
2018-01-14 04:00:00 2.6 2 Sur 9 Sudoeste 0.2 -- -- 95
2018-01-14 03:00:00 2.7 6 Sudoeste 13 Sudoeste 0 -- -- 96
2018-01-14 02:00:00 2.8 0 Calma 5 Sudoeste 0 -- -- 90
2018-01-14 01:00:00 3.5 3 Sudeste 5 Sudeste 0 -- -- 84
2018-01-14 00:00:00 2.9 0 Calma 6 Noroeste 0 -- -- 84
2018-01-13 23:00:00 2.8 2 Este 6 Este 0 -- -- 84
2018-01-13 22:00:00 3.4 0 Calma 7 Nordeste 0 -- -- 82
2018-01-13 21:00:00 3.6 3 Nordeste 9 Nordeste 0 -- -- 79
2018-01-13 20:00:00 3.7 5 Nordeste 8 Nordeste 0 -- -- 79
2018-01-13 19:00:00 5 4 Nordeste 16 Este 0 -- -- 72
2018-01-13 18:00:00 5.6 9 Nordeste 17 Nordeste 0 -- -- 69
2018-01-13 17:00:00 6.2 10 Nordeste 20 Nordeste 0 -- -- 65
2018-01-13 16:00:00 6.5 6 Este 21 Nordeste 0 -- -- 60
2018-01-13 15:00:00 6.5 9 Nordeste 16 Nordeste 0 -- -- 57
2018-01-13 14:00:00 6.8 10 Este 22 Nordeste 0 -- -- 57
2018-01-13 13:00:00 5.5 4 Norte 12 Nordeste 0 -- -- 58
2018-01-13 12:00:00 3.9 7 Norte 15 Nordeste 0 -- -- 67
2018-01-13 11:00:00 0.5 0 Calma 4 Noroeste 0 -- -- 78
2018-01-13 10:00:00 -0.6 0 Calma 12 Nordeste 0 -- -- 82
2018-01-13 09:00:00 -2.7 3 Este 6 Sudeste 0 -- -- 85
2018-01-13 08:00:00 -3.1 4 Sudeste 6 Sudeste 0 -- -- 84
2018-01-13 07:00:00 -2.4 2 Este 10 Nordeste 0 -- -- 80
2018-01-13 06:00:00 -3.5 3 Nordeste 5 Nordeste 0 -- -- 89
2018-01-13 05:00:00 -1.9 4 Nordeste 8 Este 0 -- -- 80
2018-01-13 04:00:00 -3.2 3 Nordeste 10 Nordeste 0 -- -- 86
2018-01-13 03:00:00 -1.6 5 Nordeste 10 Norte 0 -- -- 82
2018-01-13 02:00:00 -1.5 0 Calma 9 Este 0 -- -- 85
2018-01-13 01:00:00 -1 0 Calma 8 Este 0 -- -- 80
2018-01-13 00:00:00 -1.1 3 Este 7 Nordeste 0 -- -- 88
2018-01-12 23:00:00 -1.1 2 Este 9 Nordeste 0 -- -- 87
2018-01-12 22:00:00 -1.1 4 Nordeste 9 Este 0 -- -- 88
2018-01-12 21:00:00 0.5 4 Este 9 Nordeste 0 -- -- 81
2018-01-12 20:00:00 1.3 3 Nordeste 11 Nordeste 0 -- -- 79
2018-01-12 19:00:00 1.9 5 Este 10 Este 0 -- -- 79
2018-01-12 18:00:00 4.6 5 Sudeste 8 Este 0 -- -- 67
2018-01-12 17:00:00 7.7 8 Sudoeste 13 Sudoeste 0 -- -- 55
2018-01-12 16:00:00 8.8 9 Sudoeste 16 Sudoeste 0 -- -- 53
2018-01-12 15:00:00 8.8 8 Sudoeste 12 Sudoeste 0 -- -- 47
2018-01-12 14:00:00 7.7 0 Calma 9 Este 0 -- -- 47
2018-01-12 13:00:00 5.7 0 Calma 9 Sur 0 -- -- 58
2018-01-12 12:00:00 2.6 5 Sur 14 Sudoeste 0 -- -- 81
2018-01-12 11:00:00 1.3 0 Calma 8 Nordeste 0 -- -- 76
2018-01-12 10:00:00 -1.4 2 Nordeste 9 Sur 0 -- -- 89
2018-01-12 09:00:00 -4 3 Nordeste 9 Nordeste 0 -- -- 94
2018-01-12 08:00:00 -5 0 Calma 5 Sur 0 -- -- 93
2018-01-12 07:00:00 -4 0 Calma 10 Este 0 -- -- 92
2018-01-12 06:00:00 -3.2 6 Este 10 Este 0 -- -- 95
2018-01-12 05:00:00 -3.2 5 Nordeste 7 Este -- -- -- 95
2018-01-12 04:00:00 -- -- -- -- -- -- -- -- --
2018-01-12 03:00:00 -- -- -- -- -- -- -- -- --
2018-01-12 02:00:00 -- -- -- -- -- -- -- -- --
2018-01-12 01:00:00 -- -- -- -- -- -- -- -- --
2018-01-12 00:00:00 -- -- -- -- -- -- -- -- --
2018-01-11 23:00:00 -- -- -- -- -- -- -- -- --
2018-01-11 22:00:00 -- -- -- -- -- -- -- -- --
2018-01-11 21:00:00 -- -- -- -- -- -- -- -- --
2018-01-11 20:00:00 -- -- -- -- -- -- -- -- --
2018-01-11 19:00:00 -- -- -- -- -- -- -- -- --
2018-01-11 18:00:00 -- -- -- -- -- -- -- -- --
2018-01-11 17:00:00 -- -- -- -- -- -- -- -- --
2018-01-11 16:00:00 -- -- -- -- -- -- -- -- --
2018-01-11 15:00:00 8.9 12 Sudoeste 20 Sudoeste 0 -- -- 58
2018-01-11 14:00:00 7.6 9 Sur 18 Sudoeste 0 -- -- 62
2018-01-11 13:00:00 6.5 10 Sudoeste 19 Sudoeste 0 -- -- 66
2018-01-11 12:00:00 5.4 9 Sudoeste 14 Sudoeste 0 -- -- 70
2018-01-11 11:00:00 2.6 3 Este 7 Este 0 -- -- 92
2018-01-11 10:00:00 0.5 4 Sudeste 7 Nordeste 0 -- -- 99
2018-01-11 09:00:00 -0.9 3 Este 8 Sudeste 0 -- -- 98
2018-01-11 08:00:00 -0.9 4 Este 7 Este 0 -- -- 99
2018-01-11 07:00:00 -0.7 2 Nordeste 9 Nordeste 0 -- -- 97
2018-01-11 06:00:00 -0.4 2 Este 6 Sur 0 -- -- 97
2018-01-11 05:00:00 0.4 0 Calma 4 Nordeste 0 -- -- 95
2018-01-11 04:00:00 1.9 0 Calma 10 Sudoeste 0 -- -- 88
2018-01-11 03:00:00 3.2 6 Sur 15 Sur 0 -- -- 83
2018-01-11 02:00:00 3.8 10 Sur 18 Sur 0 -- -- 85
2018-01-11 01:00:00 2.7 3 Sudoeste 8 Sudoeste 0 -- -- 98
2018-01-11 00:00:00 4 7 Sudoeste 10 Sudoeste 0 -- -- 99
2018-01-10 23:00:00 4.2 3 Oeste 8 Sur 0 -- -- 96
2018-01-10 22:00:00 4.7 5 Sur 9 Sur 1.2 -- -- 96
2018-01-10 21:00:00 5 4 Sudoeste 5 Sudoeste 0.8 -- -- 91
2018-01-10 20:00:00 5.7 2 Oeste 14 Sudoeste 0 -- -- 84
2018-01-10 19:00:00 6.2 11 Sudoeste 22 Sur 0 -- -- 78
2018-01-10 18:00:00 6.6 11 Sudoeste 18 Sur 0 -- -- 76
2018-01-10 17:00:00 7.5 6 Sur 16 Sur 0 -- -- 74
2018-01-10 16:00:00 8.2 14 Sudoeste 23 Sur 0 -- -- 72
2018-01-10 15:00:00 7.8 14 Sudoeste 23 Sudoeste 0 -- -- 72
2018-01-10 14:00:00 7.5 11 Sudoeste 18 Sudoeste 0 -- -- 72
2018-01-10 13:00:00 6 5 Sudoeste 12 Sudoeste 0 -- -- 78
2018-01-10 12:00:00 3.8 4 Sudoeste 11 Sudoeste 0 -- -- 83
2018-01-10 11:00:00 2 0 Calma 4 Este 0 -- -- 89
2018-01-10 10:00:00 -0.3 0 Calma 3 Sudeste 0 -- -- 99
2018-01-10 09:00:00 -1.8 3 Este 6 Nordeste 0 -- -- 98
2018-01-10 08:00:00 -1.6 3 Nordeste 8 Nordeste 0 -- -- 97
2018-01-10 07:00:00 -1.3 0 Calma 7 Nordeste 0 -- -- 97
2018-01-10 06:00:00 -0.7 0 Calma 6 Nordeste 0 -- -- 97
2018-01-10 05:00:00 -0.4 2 Este 6 Nordeste 0 -- -- 96
2018-01-10 04:00:00 0.3 3 Nordeste 6 Nordeste 0 -- -- 95
2018-01-10 03:00:00 1.6 2 Nordeste 3 Nordeste 0 -- -- 93
2018-01-10 02:00:00 1.9 2 Nordeste 4 Este 0 -- -- 94
2018-01-10 01:00:00 1.9 0 Calma 3 Sur 0 -- -- 92
2018-01-10 00:00:00 2.1 0 Calma 4 Este 0 -- -- 91
2018-01-09 23:00:00 2.2 0 Calma 5 Nordeste 0 -- -- 89
2018-01-09 22:00:00 2 2 Nordeste 7 Este 0 -- -- 90
2018-01-09 21:00:00 2.3 3 Este 6 Este 0 -- -- 88
2018-01-09 20:00:00 2.2 2 Nordeste 4 Nordeste 0 -- -- 89
2018-01-09 19:00:00 3.7 2 Nordeste 12 Sur 0 -- -- 77
2018-01-09 18:00:00 4.7 4 Sur 11 Sudoeste 0 -- -- 75
2018-01-09 17:00:00 6 6 Sudoeste 11 Sudoeste 0 -- -- 73
2018-01-09 16:00:00 6.4 6 Sudoeste 13 Sudoeste 0 -- -- 68
2018-01-09 15:00:00 5.4 8 Oeste 12 Oeste 0 -- -- 75
2018-01-09 14:00:00 4.2 5 Sudoeste 11 Sudoeste 0 -- -- 86
2018-01-09 13:00:00 2.2 4 Sudoeste 9 Oeste 0 -- -- 100
2018-01-09 12:00:00 0 2 Nordeste 8 Nordeste 0 -- -- 100
2018-01-09 11:00:00 -0.9 3 Nordeste 8 Nordeste 0 -- -- 100
2018-01-09 10:00:00 -1.8 2 Sur 5 Nordeste 0 -- -- 100
2018-01-09 09:00:00 -1.8 3 Nordeste 7 Nordeste 0 -- -- 100
2018-01-09 08:00:00 -1.2 3 Este 9 Este 0 -- -- 100
2018-01-09 07:00:00 -0.8 4 Este 8 Este 0 -- -- 100
2018-01-09 06:00:00 -0.3 3 Este 8 Este 0 -- -- 100
2018-01-09 05:00:00 0 6 Nordeste 10 Sur 0 -- -- 100
2018-01-09 04:00:00 0 7 Sur 10 Sur 0 -- -- 100
2018-01-09 03:00:00 0.6 2 Nordeste 6 Nordeste 0 -- -- 100
2018-01-09 02:00:00 0.8 2 Sudeste 5 Sur 0 -- -- 100
2018-01-09 01:00:00 0.9 4 Sur 6 Sudoeste 0 -- -- 100
2018-01-09 00:00:00 1.1 3 Oeste 5 Sudoeste 0 -- -- 100
2018-01-08 23:00:00 1.4 2 Oeste 4 Oeste 0 -- -- 100
2018-01-08 22:00:00 1.6 2 Noroeste 6 Oeste 0 -- -- 100
2018-01-08 21:00:00 1.8 4 Oeste 7 Oeste 0 -- -- 100
2018-01-08 20:00:00 2 3 Sudoeste 6 Sudoeste 0 -- -- 100
2018-01-08 19:00:00 2 4 Sudoeste 8 Oeste 0 -- -- 100
2018-01-08 18:00:00 2.2 6 Oeste 20 Sudoeste 0 -- -- 99
2018-01-08 17:00:00 3.7 13 Sudoeste 18 Sudoeste 0 -- -- 92
2018-01-08 16:00:00 6.2 5 Sudoeste 16 Sudoeste 0 -- -- 79
2018-01-08 15:00:00 5.7 13 Sudoeste 18 Sudoeste 0 -- -- 86
2018-01-08 14:00:00 6 3 Oeste 9 Oeste 0 -- -- 84
2018-01-08 13:00:00 3.4 5 Sudoeste 9 Sudoeste 0 -- -- 100
2018-01-08 12:00:00 0.9 2 Nordeste 9 Sudoeste 0 -- -- 100
2018-01-08 11:00:00 -0.8 2 Sudoeste 5 Oeste 0 -- -- 100
2018-01-08 10:00:00 -1.1 0 Calma 3 Sudoeste 0 -- -- 100
2018-01-08 09:00:00 -2.6 0 Calma -- -- 0 -- -- 99
2018-01-08 08:00:00 -1.5 0 Calma 4 Nordeste 0 -- -- 100
2018-01-08 07:00:00 -1.2 3 Este 7 Norte 0 -- -- 100
2018-01-08 06:00:00 -0.6 0 Calma 7 Oeste 0 -- -- 99
2018-01-08 05:00:00 -0.1 0 Calma 4 Sudeste 0 -- -- 100
2018-01-08 04:00:00 0.5 5 Nordeste 9 Este 0 -- -- 100
2018-01-08 03:00:00 0.1 5 Nordeste 8 Nordeste 0 -- -- 99
2018-01-08 02:00:00 0.6 0 Calma 6 Nordeste 0 -- -- 98
2018-01-08 01:00:00 1.5 2 Nordeste 4 Nordeste 0 -- -- 99
2018-01-08 00:00:00 2.1 0 Calma 4 Sudeste 0 -- -- 98
2018-01-07 23:00:00 2.8 0 Calma 7 Sur 0 -- -- 98
2018-01-07 22:00:00 3 0 Calma 4 Norte 0 -- -- 99
2018-01-07 21:00:00 3.6 2 Este 8 Este 0 -- -- 98
2018-01-07 20:00:00 3.8 3 Sur 5 Noroeste 0 -- -- 97
2018-01-07 19:00:00 4.5 0 Calma 6 Este 0 -- -- 93
2018-01-07 18:00:00 5.2 3 Norte 9 Este 0 -- -- 92
2018-01-07 17:00:00 5.8 4 Nordeste 7 Nordeste 0 -- -- 92
2018-01-07 16:00:00 6 3 Norte 9 Nordeste 0 -- -- 90
2018-01-07 15:00:00 6 5 Nordeste 14 Este 0 -- -- 90
2018-01-07 14:00:00 5.9 9 Nordeste 19 Nordeste 0 -- -- 90
2018-01-07 13:00:00 6.4 13 Nordeste 24 Este 0 -- -- 91
2018-01-07 12:00:00 5.8 11 Nordeste 23 Nordeste 0 -- -- 92
2018-01-07 11:00:00 6 10 Este 32 Sudeste 1.8 -- -- 90
2018-01-07 10:00:00 7.2 8 Nordeste 16 Este 0 -- -- 89
2018-01-07 09:00:00 6.6 4 Nordeste 10 Nordeste 0 -- -- 94
2018-01-07 08:00:00 6.9 5 Nordeste 19 Nordeste 0 -- -- 90
2018-01-07 07:00:00 6.8 6 Nordeste 14 Nordeste 0 -- -- 92
2018-01-07 06:00:00 6.6 6 Nordeste 17 Nordeste 0 -- -- 95
2018-01-07 05:00:00 6.6 11 Nordeste 19 Nordeste 5 -- -- 96
2018-01-07 04:00:00 5.9 4 Nordeste 23 Nordeste 1.2 -- -- 96
2018-01-07 03:00:00 5.7 8 Nordeste 22 Nordeste 2.2 -- -- 94
2018-01-07 02:00:00 6.8 10 Nordeste 21 Nordeste 2.2 -- -- 93
2018-01-07 01:00:00 7.9 8 Nordeste 29 Sur 7 -- -- 89
2018-01-07 00:00:00 9.6 16 Este 40 Este 0.8 -- -- 79
2018-01-06 23:00:00 11.3 23 Este 36 Nordeste 0 -- -- 65
2018-01-06 22:00:00 10.9 23 Nordeste 44 Nordeste 0 -- -- 64
2018-01-06 21:00:00 10 18 Nordeste 37 Nordeste 0 -- -- 65
2018-01-06 20:00:00 9.2 11 Este 19 Nordeste 0 -- -- 72
2018-01-06 19:00:00 9.7 11 Nordeste 17 Este 0 -- -- 71
2018-01-06 18:00:00 9.3 7 Nordeste 21 Este 0 -- -- 75
2018-01-06 17:00:00 9.8 14 Nordeste 26 Nordeste 0 -- -- 74
2018-01-06 16:00:00 9.9 15 Nordeste 31 Nordeste 0 -- -- 74
2018-01-06 15:00:00 10 15 Este 32 Nordeste 0 -- -- 72
2018-01-06 14:00:00 10.2 15 Este 27 Nordeste 0 -- -- 69
2018-01-06 13:00:00 10.1 11 Este 29 Nordeste 0 -- -- 68
2018-01-06 12:00:00 9.3 19 Este 30 Este 0 -- -- 71
2018-01-06 11:00:00 9.3 18 Este 29 Nordeste 0 -- -- 69
2018-01-06 10:00:00 9.2 18 Este 31 Este 0 -- -- 69
2018-01-06 09:00:00 8.7 13 Este 23 Nordeste 0 -- -- 72
2018-01-06 08:00:00 8.5 16 Este 24 Nordeste 0 -- -- 74
2018-01-06 07:00:00 8.3 16 Nordeste 25 Nordeste 0 -- -- 77
2018-01-06 06:00:00 7.3 5 Nordeste 15 Nordeste 0 -- -- 84
2018-01-06 05:00:00 6.8 9 Nordeste 15 Nordeste 0 -- -- 88
2018-01-06 04:00:00 6.2 0 Calma 8 Este 0 -- -- 91
2018-01-06 03:00:00 6.5 6 Este 9 Este 0 -- -- 91
2018-01-06 02:00:00 6.5 0 Calma 6 Sur 0 -- -- 90
2018-01-06 01:00:00 6.7 5 Este 7 Este 0 -- -- 89
2018-01-06 00:00:00 7.4 0 Calma 8 Nordeste 0 -- -- 85
2018-01-05 23:00:00 7.7 5 Sudeste 7 Sudeste 0 -- -- 83
2018-01-05 22:00:00 8 3 Nordeste 8 Nordeste 0 -- -- 82
2018-01-05 21:00:00 8.1 4 Nordeste 9 Nordeste 0 -- -- 81
2018-01-05 20:00:00 8.5 2 Nordeste 8 Nordeste 0 -- -- 78
2018-01-05 19:00:00 9.1 0 Calma 5 Sur 0 -- -- 74
2018-01-05 18:00:00 10.7 4 Sur 12 Sur 0 -- -- 66
2018-01-05 17:00:00 11.6 7 Sur 12 Sur 0 -- -- 62
2018-01-05 16:00:00 12.6 8 Sur 19 Sudoeste 0 -- -- 62
2018-01-05 15:00:00 11.8 9 Sudoeste 20 Sudoeste 0 -- -- 67
2018-01-05 14:00:00 10.7 7 Sudoeste 17 Sudoeste 0 -- -- 74
2018-01-05 13:00:00 9.8 9 Sudoeste 17 Sudoeste 0 -- -- 77
2018-01-05 12:00:00 9.8 4 Sur 7 Oeste 0 -- -- 77
2018-01-05 11:00:00 6.4 2 Nordeste 7 Nordeste 0 -- -- 88
2018-01-05 10:00:00 3.5 2 Nordeste 7 Este 0 -- -- 99
2018-01-05 09:00:00 0.9 0 Calma 8 Nordeste 0 -- -- 99
2018-01-05 08:00:00 1.5 2 Nordeste 6 Nordeste 0 -- -- 98
2018-01-05 07:00:00 1.9 3 Este 6 Nordeste 0 -- -- 97
2018-01-05 06:00:00 2.2 2 Nordeste 10 Nordeste 0 -- -- 96
2018-01-05 05:00:00 2.5 3 Este 12 Este 0 -- -- 96
2018-01-05 04:00:00 3.3 8 Este 11 Nordeste 0 -- -- 96
2018-01-05 03:00:00 4.1 8 Este 14 Nordeste 0 -- -- 94
2018-01-05 02:00:00 4.4 6 Este 12 Este 0 -- -- 94
2018-01-05 01:00:00 5 6 Este 10 Este 0 -- -- 93
2018-01-05 00:00:00 5.5 8 Este 13 Este 0 -- -- 92
2018-01-04 23:00:00 6.1 5 Sudeste 14 Nordeste 0 -- -- 90
2018-01-04 22:00:00 7.1 3 Nordeste 9 Nordeste 0 -- -- 87
2018-01-04 21:00:00 8.3 3 Este 9 Sudoeste 0 -- -- 85
2018-01-04 20:00:00 10.6 5 Sudoeste 17 Sur 0 -- -- 77
2018-01-04 19:00:00 11.2 5 Sudoeste 23 Sur 0 -- -- 74
2018-01-04 18:00:00 12.8 8 Sur 26 Sudoeste 0 -- -- 67
2018-01-04 17:00:00 14.7 17 Sudoeste 32 Oeste 0 -- -- 61
2018-01-04 16:00:00 16.3 20 Oeste 35 Oeste 0 -- -- 55
2018-01-04 15:00:00 16.6 18 Sudoeste 30 Sudoeste 0 -- -- 58
2018-01-04 14:00:00 15.9 14 Sudoeste 27 Sudoeste 0 -- -- 65
2018-01-04 13:00:00 14.8 12 Sur 18 Sudoeste 0 -- -- 68
2018-01-04 12:00:00 11.3 6 Oeste 9 Oeste 0 -- -- 81
2018-01-04 11:00:00 9.5 0 Calma 9 Nordeste 0 -- -- 86
2018-01-04 10:00:00 6.5 6 Este 12 Nordeste 0 -- -- 94
2018-01-04 09:00:00 4.4 6 Este 11 Nordeste 0 -- -- 96
2018-01-04 08:00:00 4.9 7 Este 14 Nordeste 0 -- -- 95
2018-01-04 07:00:00 5 8 Nordeste 13 Nordeste 0 -- -- 96
2018-01-04 06:00:00 5.3 6 Este 11 Nordeste 0 -- -- 95
2018-01-04 05:00:00 5.4 5 Este 12 Nordeste 0 -- -- 97
2018-01-04 04:00:00 5.4 4 Este 12 Este 0 -- -- 97
2018-01-04 03:00:00 5.4 3 Este 11 Nordeste 0 -- -- 92
2018-01-04 02:00:00 6.4 8 Nordeste 18 Nordeste 0 -- -- 91
2018-01-04 01:00:00 6.3 6 Este 12 Este 0 -- -- 93
2018-01-04 00:00:00 7.1 6 Este 14 Nordeste 0 -- -- 88
2018-01-03 23:00:00 7.9 3 Nordeste 13 Nordeste 0 -- -- 86
2018-01-03 22:00:00 9 4 Este 15 Nordeste 0 -- -- 84
2018-01-03 21:00:00 10.7 2 Sudoeste 5 Este 0 -- -- 82
2018-01-03 20:00:00 12.7 8 Oeste 31 Sur 0 -- -- 75
2018-01-03 19:00:00 13.8 18 Sudoeste 34 Sudoeste 0 -- -- 69
2018-01-03 18:00:00 14.7 14 Sudoeste 31 Sur 0 -- -- 52
2018-01-03 17:00:00 16.4 19 Sudoeste 30 Sudoeste 0 -- -- 45
2018-01-03 16:00:00 17.3 18 Sudoeste 31 Sudoeste 0 -- -- 46
2018-01-03 15:00:00 17.6 14 Sudoeste 21 Sudoeste 0 -- -- 52
2018-01-03 14:00:00 16.2 9 Sudoeste 16 Sudoeste 0 -- -- 64
2018-01-03 13:00:00 12.7 2 Norte 7 Oeste 0 -- -- 79
2018-01-03 12:00:00 10.3 5 Oeste 7 Oeste 0 -- -- 87
2018-01-03 11:00:00 7.5 0 Calma 9 Este 0 -- -- 93
2018-01-03 10:00:00 5.1 5 Este 12 Nordeste 0 -- -- 98
2018-01-03 09:00:00 3.5 7 Nordeste 13 Nordeste 0 -- -- 99
2018-01-03 08:00:00 3.2 0 Calma 14 Nordeste 0 -- -- 99
2018-01-03 07:00:00 2.8 4 Norte 10 Nordeste 0 -- -- 99
2018-01-03 06:00:00 2.8 3 Este 8 Nordeste 0 -- -- 98
2018-01-03 05:00:00 3.2 3 Nordeste 10 Nordeste 0 -- -- 98
2018-01-03 04:00:00 3.6 6 Nordeste 13 Nordeste 0 -- -- 98
2018-01-03 03:00:00 4 6 Este 12 Nordeste 0 -- -- 99
2018-01-03 02:00:00 3.5 2 Este 12 Nordeste 0 -- -- 97
2018-01-03 01:00:00 4.4 3 Nordeste 12 Este 0 -- -- 98
2018-01-03 00:00:00 4.5 5 Nordeste 9 Nordeste 0 -- -- 97
2018-01-02 23:00:00 4.7 5 Este 9 Nordeste 0 -- -- 97
2018-01-02 22:00:00 5.4 5 Este 13 Este 0 -- -- 95
2018-01-02 21:00:00 6.4 4 Sudeste 9 Este 0 -- -- 92
2018-01-02 20:00:00 7.7 7 Este 10 Nordeste 0 -- -- 91
2018-01-02 19:00:00 9.7 3 Oeste 14 Sur 0 -- -- 87
2018-01-02 18:00:00 11.2 6 Sudoeste 11 Sudoeste 0 -- -- 80
2018-01-02 17:00:00 12.2 7 Oeste 19 Oeste 0 -- -- 76
2018-01-02 16:00:00 13.4 7 Sudoeste 14 Sudoeste 0 -- -- 71
2018-01-02 15:00:00 12.9 10 Oeste 14 Oeste 0 -- -- 70
2018-01-02 14:00:00 11.7 8 Sur 13 Sudoeste 0 -- -- 71
2018-01-02 13:00:00 10.1 4 Oeste 9 Oeste 0 -- -- 78
2018-01-02 12:00:00 7.8 2 Nordeste 10 Este 0 -- -- 84
2018-01-02 11:00:00 4.5 5 Este 12 Nordeste 0 -- -- 87
2018-01-02 10:00:00 2.3 6 Este 10 Nordeste 0 -- -- 94
2018-01-02 09:00:00 -0.1 6 Este 12 Este 0 -- -- 97
2018-01-02 08:00:00 0.3 6 Este 14 Nordeste 0 -- -- 98
2018-01-02 07:00:00 0.3 4 Este 10 Nordeste 0 -- -- 98
2018-01-02 06:00:00 0.2 0 Calma 10 Nordeste 0 -- -- 98
2018-01-02 05:00:00 0.2 5 Este 8 Este 0 -- -- 98
2018-01-02 04:00:00 1 3 Nordeste 11 Este 0 -- -- 96
2018-01-02 03:00:00 0.9 3 Este 9 Este 0 -- -- 98
2018-01-02 02:00:00 0.9 3 Este 11 Nordeste 0 -- -- 97
2018-01-02 01:00:00 1.4 2 Norte 9 Este 0 -- -- 96
2018-01-02 00:00:00 2 6 Este 10 Este 0 -- -- 96
2018-01-01 23:00:00 2.5 3 Este 17 Sur 0 -- -- 94
2018-01-01 22:00:00 3.4 13 Sur 16 Sur 0 -- -- 93
2018-01-01 21:00:00 4 3 Sudoeste 15 Sudoeste 0 -- -- 90
2018-01-01 20:00:00 5.2 5 Sudoeste 12 Oeste 0 -- -- 89
2018-01-01 19:00:00 5.4 4 Sudoeste 12 Sudoeste 1.2 -- -- 90
2018-01-01 18:00:00 6.1 6 Sudoeste 9 Oeste 0.6 -- -- 85
2018-01-01 17:00:00 7.8 9 Sudoeste 26 Sur 0 -- -- 67
2018-01-01 16:00:00 7.7 12 Sur 26 Sur 0 -- -- 67
2018-01-01 15:00:00 8.2 18 Sudoeste 35 Sudoeste 0 -- -- 63
2018-01-01 14:00:00 8.2 16 Sudoeste 26 Sudoeste 0 -- -- 63
2018-01-01 13:00:00 7.3 15 Sudoeste 30 Sudoeste 0 -- -- 69
2018-01-01 12:00:00 6 9 Sudoeste 16 Sudoeste 0 -- -- 72
2018-01-01 11:00:00 3.2 6 Sudoeste 9 Sudoeste 0 -- -- 84
2018-01-01 10:00:00 1.3 3 Sudeste 11 Nordeste 0 -- -- 89
2018-01-01 09:00:00 -0.5 7 Nordeste 12 Nordeste 0 -- -- 93
2018-01-01 08:00:00 -0.1 4 Este 11 Nordeste 0 -- -- 92
2018-01-01 07:00:00 -0.3 4 Este 12 Nordeste 0 -- -- 91
2018-01-01 06:00:00 0.7 2 Nordeste 7 Nordeste 0 -- -- 85
2018-01-01 05:00:00 3 3 Sudeste 15 Sur 0 -- -- 78
2018-01-01 04:00:00 4.5 9 Sudoeste 22 Sudoeste 0 -- -- 71
2018-01-01 03:00:00 4.8 10 Sur 21 Sudoeste 0 -- -- 69
2018-01-01 02:00:00 4.9 6 Oeste 25 Sur 0 -- -- 70
2018-01-01 01:00:00 4.6 7 Sur 17 Sudoeste 0 -- -- 78
2018-01-01 00:00:00 5.3 12 Sudoeste 20 Sudoeste 0 -- -- 83
2017-12-31 23:00:00 7 9 Sudoeste 29 Sudoeste 0 -- -- 83
2017-12-31 22:00:00 5 13 Sudoeste 26 Sudoeste 0 -- -- 100
2017-12-31 21:00:00 4.4 0 Calma 4 Sudeste 0 -- -- 98
2017-12-31 20:00:00 4.1 0 Calma 4 Nordeste 0 -- -- 97
2017-12-31 19:00:00 4.3 4 Sudoeste 9 Sudeste 0 -- -- 94
2017-12-31 18:00:00 5.4 4 Oeste 9 Sudeste 0 -- -- 91
2017-12-31 17:00:00 6.5 4 Oeste 13 Sudoeste 0 -- -- 89
2017-12-31 16:00:00 7.5 3 Sudoeste 6 Noroeste 0 -- -- 88
2017-12-31 15:00:00 6.5 4 Nordeste 9 Oeste 0 -- -- 92
2017-12-31 14:00:00 6 2 Noroeste 5 Oeste 0 -- -- 95
2017-12-31 13:00:00 4.9 0 Calma 5 Sur 0 -- -- 98
2017-12-31 12:00:00 3.8 0 Calma 3 Oeste 0 -- -- 99
2017-12-31 11:00:00 2.9 2 Oeste 6 Este 0 -- -- 100
2017-12-31 10:00:00 1.3 0 Calma 9 Este 0 -- -- 100
2017-12-31 09:00:00 1.1 0 Calma 6 Sudeste 0 -- -- 100
2017-12-31 08:00:00 1.2 4 Nordeste 11 Nordeste 0 -- -- 100
2017-12-31 07:00:00 0.7 0 Calma 8 Nordeste 0 -- -- 100
2017-12-31 06:00:00 0.3 0 Calma 5 Sudeste 0 -- -- 100
2017-12-31 05:00:00 0.5 2 Sudoeste 9 Nordeste 0 -- -- 100
2017-12-31 04:00:00 1.2 5 Nordeste 9 Nordeste 0 -- -- 100
2017-12-31 03:00:00 1.2 3 Este 7 Este 0 -- -- 100
2017-12-31 02:00:00 2.2 0 Calma 8 Este 0 -- -- 98
2017-12-31 01:00:00 2.7 5 Este 7 Nordeste 0 -- -- 99